sensor_id;sensor_type;location;lat;lon;timestamp;pressure;altitude;pressure_sealevel;temperature;humidity
67434;BME280;54305;47.950;6.572;2023-09-19T00:01:15;94196.22;;;14.47;100.00
67434;BME280;54305;47.950;6.572;2023-09-19T00:03:40;94189.03;;;14.34;100.00
67434;BME280;54305;47.950;6.572;2023-09-19T00:06:07;94186.88;;;14.38;100.00
67434;BME280;54305;47.950;6.572;2023-09-19T00:08:33;94180.81;;;14.37;100.00
67434;BME280;54305;47.950;6.572;2023-09-19T00:10:58;94184.88;;;14.40;100.00
67434;BME280;54305;47.950;6.572;2023-09-19T00:13:30;94184.25;;;14.38;100.00
67434;BME280;54305;47.950;6.572;2023-09-19T00:15:56;94180.63;;;14.39;100.00
67434;BME280;54305;47.950;6.572;2023-09-19T00:18:23;94183.06;;;14.40;100.00
67434;BME280;54305;47.950;6.572;2023-09-19T00:20:53;94186.13;;;14.44;100.00
67434;BME280;54305;47.950;6.572;2023-09-19T00:23:21;94188.09;;;14.42;100.00
67434;BME280;54305;47.950;6.572;2023-09-19T00:25:47;94211.31;;;14.45;100.00
67434;BME280;54305;47.950;6.572;2023-09-19T00:28:12;94190.13;;;14.40;100.00
67434;BME280;54305;47.950;6.572;2023-09-19T00:30:37;94193.34;;;14.42;100.00
67434;BME280;54305;47.950;6.572;2023-09-19T00:33:06;94197.28;;;14.31;100.00
67434;BME280;54305;47.950;6.572;2023-09-19T00:35:32;94204.75;;;14.34;100.00
67434;BME280;54305;47.950;6.572;2023-09-19T00:37:58;94209.81;;;14.36;100.00
67434;BME280;54305;47.950;6.572;2023-09-19T00:40:23;94197.72;;;14.35;100.00
67434;BME280;54305;47.950;6.572;2023-09-19T00:42:49;94198.84;;;14.26;100.00
67434;BME280;54305;47.950;6.572;2023-09-19T00:45:15;94196.88;;;14.28;100.00
67434;BME280;54305;47.950;6.572;2023-09-19T00:47:48;94193.59;;;14.26;100.00
67434;BME280;54305;47.950;6.572;2023-09-19T00:50:14;94206.44;;;14.21;100.00
67434;BME280;54305;47.950;6.572;2023-09-19T00:52:40;94202.03;;;14.21;100.00
67434;BME280;54305;47.950;6.572;2023-09-19T00:55:06;94203.91;;;14.13;100.00
67434;BME280;54305;47.950;6.572;2023-09-19T00:57:32;94206.25;;;14.08;100.00
67434;BME280;54305;47.950;6.572;2023-09-19T00:59:58;94203.03;;;14.06;100.00
67434;BME280;54305;47.950;6.572;2023-09-19T01:02:23;94214.75;;;14.10;100.00
67434;BME280;54305;47.950;6.572;2023-09-19T01:04:49;94213.50;;;14.06;100.00
67434;BME280;54305;47.950;6.572;2023-09-19T01:07:14;94217.50;;;14.02;100.00
67434;BME280;54305;47.950;6.572;2023-09-19T01:09:43;94219.19;;;14.09;100.00
67434;BME280;54305;47.950;6.572;2023-09-19T01:12:09;94216.56;;;14.09;100.00
67434;BME280;54305;47.950;6.572;2023-09-19T01:17:02;94224.34;;;14.03;100.00
67434;BME280;54305;47.950;6.572;2023-09-19T01:22:26;94229.97;;;14.00;100.00
67434;BME280;54305;47.950;6.572;2023-09-19T01:27:31;94235.06;;;14.08;100.00
67434;BME280;54305;47.950;6.572;2023-09-19T01:30:14;94228.78;;;14.02;100.00
67434;BME280;54305;47.950;6.572;2023-09-19T01:32:42;94239.69;;;14.06;100.00
67434;BME280;54305;47.950;6.572;2023-09-19T01:35:08;94232.84;;;14.05;100.00
67434;BME280;54305;47.950;6.572;2023-09-19T01:37:37;94239.25;;;14.02;100.00
67434;BME280;54305;47.950;6.572;2023-09-19T01:47:48;94243.22;;;13.98;100.00
67434;BME280;54305;47.950;6.572;2023-09-19T01:50:17;94245.25;;;13.96;100.00
67434;BME280;54305;47.950;6.572;2023-09-19T01:52:49;94243.16;;;13.92;100.00
67434;BME280;54305;47.950;6.572;2023-09-19T01:55:19;94252.00;;;13.91;100.00
67434;BME280;54305;47.950;6.572;2023-09-19T02:00:19;94244.41;;;13.96;100.00
67434;BME280;54305;47.950;6.572;2023-09-19T02:02:47;94245.69;;;14.00;100.00
67434;BME280;54305;47.950;6.572;2023-09-19T02:05:24;94239.53;;;13.93;100.00
67434;BME280;54305;47.950;6.572;2023-09-19T02:07:50;94234.75;;;13.96;100.00
67434;BME280;54305;47.950;6.572;2023-09-19T02:10:15;94229.97;;;14.00;100.00
67434;BME280;54305;47.950;6.572;2023-09-19T02:12:42;94231.94;;;13.98;100.00
67434;BME280;54305;47.950;6.572;2023-09-19T02:15:07;94236.81;;;14.01;100.00
67434;BME280;54305;47.950;6.572;2023-09-19T02:17:33;94247.28;;;14.01;100.00
67434;BME280;54305;47.950;6.572;2023-09-19T02:19:58;94238.81;;;13.99;100.00
67434;BME280;54305;47.950;6.572;2023-09-19T02:22:26;94242.06;;;14.01;100.00
67434;BME280;54305;47.950;6.572;2023-09-19T02:24:51;94246.94;;;14.04;100.00
67434;BME280;54305;47.950;6.572;2023-09-19T02:27:17;94252.53;;;14.01;100.00
67434;BME280;54305;47.950;6.572;2023-09-19T02:29:43;94249.28;;;13.99;100.00
67434;BME280;54305;47.950;6.572;2023-09-19T02:32:08;94254.53;;;13.99;100.00
67434;BME280;54305;47.950;6.572;2023-09-19T02:34:36;94254.16;;;14.02;100.00
67434;BME280;54305;47.950;6.572;2023-09-19T02:37:05;94255.72;;;13.96;100.00
67434;BME280;54305;47.950;6.572;2023-09-19T02:39:31;94267.97;;;13.96;100.00
67434;BME280;54305;47.950;6.572;2023-09-19T02:41:56;94259.22;;;13.89;100.00
67434;BME280;54305;47.950;6.572;2023-09-19T02:44:22;94261.66;;;13.90;100.00
67434;BME280;54305;47.950;6.572;2023-09-19T02:46:48;94268.88;;;13.88;100.00
67434;BME280;54305;47.950;6.572;2023-09-19T02:49:14;94268.25;;;13.86;100.00
67434;BME280;54305;47.950;6.572;2023-09-19T02:51:39;94274.38;;;13.79;100.00
67434;BME280;54305;47.950;6.572;2023-09-19T02:54:04;94268.28;;;13.72;100.00
67434;BME280;54305;47.950;6.572;2023-09-19T02:56:30;94269.97;;;13.79;100.00
67434;BME280;54305;47.950;6.572;2023-09-19T02:58:58;94272.78;;;13.78;100.00
67434;BME280;54305;47.950;6.572;2023-09-19T03:01:25;94276.38;;;13.77;100.00
67434;BME280;54305;47.950;6.572;2023-09-19T03:03:51;94267.91;;;13.75;100.00
67434;BME280;54305;47.950;6.572;2023-09-19T03:06:18;94264.31;;;13.76;100.00
67434;BME280;54305;47.950;6.572;2023-09-19T03:08:45;94269.28;;;13.71;100.00
67434;BME280;54305;47.950;6.572;2023-09-19T03:11:13;94261.03;;;13.74;100.00
67434;BME280;54305;47.950;6.572;2023-09-19T03:13:40;94259.81;;;13.70;100.00
67434;BME280;54305;47.950;6.572;2023-09-19T03:16:06;94256.97;;;13.71;100.00
67434;BME280;54305;47.950;6.572;2023-09-19T03:18:33;94275.50;;;13.70;100.00
67434;BME280;54305;47.950;6.572;2023-09-19T03:20:59;94269.97;;;13.65;100.00
67434;BME280;54305;47.950;6.572;2023-09-19T03:23:25;94274.25;;;13.66;100.00
67434;BME280;54305;47.950;6.572;2023-09-19T03:25:51;94273.50;;;13.72;100.00
67434;BME280;54305;47.950;6.572;2023-09-19T03:28:17;94264.84;;;13.71;100.00
67434;BME280;54305;47.950;6.572;2023-09-19T03:30:43;94276.19;;;13.64;100.00
67434;BME280;54305;47.950;6.572;2023-09-19T03:33:08;94283.88;;;13.65;100.00
67434;BME280;54305;47.950;6.572;2023-09-19T03:35:37;94281.44;;;13.64;100.00
67434;BME280;54305;47.950;6.572;2023-09-19T03:38:03;94283.78;;;13.59;100.00
67434;BME280;54305;47.950;6.572;2023-09-19T03:40:28;94285.41;;;13.60;100.00
67434;BME280;54305;47.950;6.572;2023-09-19T03:42:53;94282.59;;;13.61;100.00
67434;BME280;54305;47.950;6.572;2023-09-19T03:45:19;94290.63;;;13.60;100.00
67434;BME280;54305;47.950;6.572;2023-09-19T03:47:45;94287.41;;;13.58;100.00
67434;BME280;54305;47.950;6.572;2023-09-19T03:50:12;94285.06;;;13.48;100.00
67434;BME280;54305;47.950;6.572;2023-09-19T03:52:40;94287.31;;;13.51;100.00
67434;BME280;54305;47.950;6.572;2023-09-19T03:55:05;94285.69;;;13.50;100.00
67434;BME280;54305;47.950;6.572;2023-09-19T03:57:31;94279.44;;;13.51;100.00
67434;BME280;54305;47.950;6.572;2023-09-19T03:59:56;94283.06;;;13.50;100.00
67434;BME280;54305;47.950;6.572;2023-09-19T04:02:21;94289.31;;;13.49;100.00
67434;BME280;54305;47.950;6.572;2023-09-19T04:04:50;94290.47;;;13.47;100.00
67434;BME280;54305;47.950;6.572;2023-09-19T04:07:16;94286.75;;;13.41;100.00
67434;BME280;54305;47.950;6.572;2023-09-19T04:09:42;94289.94;;;13.37;100.00
67434;BME280;54305;47.950;6.572;2023-09-19T04:12:07;94283.97;;;13.43;100.00
67434;BME280;54305;47.950;6.572;2023-09-19T04:14:34;94281.63;;;13.48;100.00
67434;BME280;54305;47.950;6.572;2023-09-19T04:16:59;94282.25;;;13.50;100.00
67434;BME280;54305;47.950;6.572;2023-09-19T04:19:25;94277.00;;;13.50;100.00
67434;BME280;54305;47.950;6.572;2023-09-19T04:21:50;94283.63;;;13.46;100.00
67434;BME280;54305;47.950;6.572;2023-09-19T04:24:15;94280.34;;;13.44;100.00
67434;BME280;54305;47.950;6.572;2023-09-19T04:26:41;94289.53;;;13.40;100.00
67434;BME280;54305;47.950;6.572;2023-09-19T04:29:07;94291.53;;;13.38;100.00
67434;BME280;54305;47.950;6.572;2023-09-19T04:31:36;94294.34;;;13.36;100.00
67434;BME280;54305;47.950;6.572;2023-09-19T04:34:05;94295.06;;;13.30;100.00
67434;BME280;54305;47.950;6.572;2023-09-19T04:36:31;94304.69;;;13.30;100.00
67434;BME280;54305;47.950;6.572;2023-09-19T04:38:56;94311.53;;;13.31;100.00
67434;BME280;54305;47.950;6.572;2023-09-19T04:41:21;94317.47;;;13.25;100.00
67434;BME280;54305;47.950;6.572;2023-09-19T04:43:47;94313.31;;;13.16;100.00
67434;BME280;54305;47.950;6.572;2023-09-19T04:46:12;94319.25;;;13.10;100.00
67434;BME280;54305;47.950;6.572;2023-09-19T04:48:39;94323.31;;;13.12;100.00
67434;BME280;54305;47.950;6.572;2023-09-19T04:51:05;94305.66;;;13.14;100.00
67434;BME280;54305;47.950;6.572;2023-09-19T04:53:30;94313.69;;;13.13;100.00
67434;BME280;54305;47.950;6.572;2023-09-19T04:55:55;94317.63;;;13.09;100.00
67434;BME280;54305;47.950;6.572;2023-09-19T04:58:22;94324.16;;;13.13;100.00
67434;BME280;54305;47.950;6.572;2023-09-19T05:00:47;94320.88;;;13.11;100.00
67434;BME280;54305;47.950;6.572;2023-09-19T05:03:13;94327.38;;;13.15;100.00
67434;BME280;54305;47.950;6.572;2023-09-19T05:05:38;94327.75;;;13.12;100.00
67434;BME280;54305;47.950;6.572;2023-09-19T05:08:04;94336.94;;;13.08;100.00
67434;BME280;54305;47.950;6.572;2023-09-19T05:10:30;94338.38;;;13.10;100.00
67434;BME280;54305;47.950;6.572;2023-09-19T05:12:55;94342.34;;;13.06;100.00
67434;BME280;54305;47.950;6.572;2023-09-19T05:15:21;94343.13;;;13.07;100.00
67434;BME280;54305;47.950;6.572;2023-09-19T05:17:49;94347.41;;;13.08;100.00
67434;BME280;54305;47.950;6.572;2023-09-19T05:20:16;94343.78;;;13.09;100.00
67434;BME280;54305;47.950;6.572;2023-09-19T05:22:42;94341.34;;;13.07;100.00
67434;BME280;54305;47.950;6.572;2023-09-19T05:25:08;94344.94;;;13.06;100.00
67434;BME280;54305;47.950;6.572;2023-09-19T05:27:33;94341.78;;;13.11;100.00
67434;BME280;54305;47.950;6.572;2023-09-19T05:29:59;94342.72;;;13.18;100.00
67434;BME280;54305;47.950;6.572;2023-09-19T05:32:24;94347.50;;;13.14;100.00
67434;BME280;54305;47.950;6.572;2023-09-19T05:34:49;94348.66;;;13.12;100.00
67434;BME280;54305;47.950;6.572;2023-09-19T05:37:18;94347.72;;;13.05;100.00
67434;BME280;54305;47.950;6.572;2023-09-19T05:39:43;94354.56;;;13.06;100.00
67434;BME280;54305;47.950;6.572;2023-09-19T05:42:08;94349.84;;;13.09;100.00
67434;BME280;54305;47.950;6.572;2023-09-19T05:44:34;94349.91;;;13.16;100.00
67434;BME280;54305;47.950;6.572;2023-09-19T05:47:00;94344.97;;;13.21;100.00
67434;BME280;54305;47.950;6.572;2023-09-19T05:49:25;94358.53;;;13.24;100.00
67434;BME280;54305;47.950;6.572;2023-09-19T05:51:50;94350.22;;;13.21;100.00
67434;BME280;54305;47.950;6.572;2023-09-19T05:54:19;94354.47;;;13.22;100.00
67434;BME280;54305;47.950;6.572;2023-09-19T05:56:45;94356.00;;;13.31;100.00
67434;BME280;54305;47.950;6.572;2023-09-19T05:59:12;94354.09;;;13.25;100.00
67434;BME280;54305;47.950;6.572;2023-09-19T06:01:38;94354.38;;;13.30;100.00
67434;BME280;54305;47.950;6.572;2023-09-19T06:04:04;94366.22;;;13.40;100.00
67434;BME280;54305;47.950;6.572;2023-09-19T06:06:29;94365.88;;;13.43;100.00
67434;BME280;54305;47.950;6.572;2023-09-19T06:08:55;94370.28;;;13.43;100.00
67434;BME280;54305;47.950;6.572;2023-09-19T06:11:20;94377.81;;;13.23;100.00
67434;BME280;54305;47.950;6.572;2023-09-19T06:13:46;94384.91;;;13.15;100.00
67434;BME280;54305;47.950;6.572;2023-09-19T06:16:16;94390.13;;;13.15;100.00
67434;BME280;54305;47.950;6.572;2023-09-19T06:18:44;94385.75;;;13.15;100.00
67434;BME280;54305;47.950;6.572;2023-09-19T06:21:10;94385.28;;;13.12;100.00
67434;BME280;54305;47.950;6.572;2023-09-19T06:23:36;94391.59;;;13.17;100.00
67434;BME280;54305;47.950;6.572;2023-09-19T06:26:01;94392.34;;;13.26;100.00
67434;BME280;54305;47.950;6.572;2023-09-19T06:28:26;94393.97;;;13.27;100.00
67434;BME280;54305;47.950;6.572;2023-09-19T06:30:53;94396.88;;;13.32;100.00
67434;BME280;54305;47.950;6.572;2023-09-19T06:33:19;94394.44;;;13.30;100.00
67434;BME280;54305;47.950;6.572;2023-09-19T06:35:46;94388.84;;;13.33;100.00
67434;BME280;54305;47.950;6.572;2023-09-19T06:38:12;94385.25;;;13.34;100.00
67434;BME280;54305;47.950;6.572;2023-09-19T06:40:38;94378.84;;;13.37;100.00
67434;BME280;54305;47.950;6.572;2023-09-19T06:43:03;94380.66;;;13.36;100.00
67434;BME280;54305;47.950;6.572;2023-09-19T06:45:30;94385.38;;;13.41;100.00
67434;BME280;54305;47.950;6.572;2023-09-19T06:47:57;94371.03;;;13.51;100.00
67434;BME280;54305;47.950;6.572;2023-09-19T06:50:23;94377.16;;;13.44;100.00
67434;BME280;54305;47.950;6.572;2023-09-19T06:52:52;94378.47;;;13.40;100.00
67434;BME280;54305;47.950;6.572;2023-09-19T06:55:19;94381.03;;;13.48;100.00
67434;BME280;54305;47.950;6.572;2023-09-19T06:57:48;94386.78;;;13.66;100.00
67434;BME280;54305;47.950;6.572;2023-09-19T07:00:13;94384.31;;;13.79;100.00
67434;BME280;54305;47.950;6.572;2023-09-19T07:02:59;94385.44;;;13.70;100.00
67434;BME280;54305;47.950;6.572;2023-09-19T07:05:29;94381.97;;;13.84;100.00
67434;BME280;54305;47.950;6.572;2023-09-19T07:07:54;94388.25;;;13.97;100.00
67434;BME280;54305;47.950;6.572;2023-09-19T07:10:20;94389.41;;;13.95;100.00
67434;BME280;54305;47.950;6.572;2023-09-19T07:12:52;94387.75;;;13.94;100.00
67434;BME280;54305;47.950;6.572;2023-09-19T07:15:18;94388.13;;;14.05;100.00
67434;BME280;54305;47.950;6.572;2023-09-19T07:17:43;94402.06;;;14.06;100.00
67434;BME280;54305;47.950;6.572;2023-09-19T07:20:10;94391.50;;;14.14;100.00
67434;BME280;54305;47.950;6.572;2023-09-19T07:22:41;94400.72;;;14.24;100.00
67434;BME280;54305;47.950;6.572;2023-09-19T07:25:06;94408.09;;;13.92;100.00
67434;BME280;54305;47.950;6.572;2023-09-19T07:27:32;94404.56;;;13.85;100.00
67434;BME280;54305;47.950;6.572;2023-09-19T07:29:57;94408.53;;;13.81;100.00
67434;BME280;54305;47.950;6.572;2023-09-19T07:32:22;94410.88;;;13.90;100.00
67434;BME280;54305;47.950;6.572;2023-09-19T07:34:48;94412.22;;;13.86;100.00
67434;BME280;54305;47.950;6.572;2023-09-19T07:37:13;94412.69;;;13.90;100.00
67434;BME280;54305;47.950;6.572;2023-09-19T07:39:41;94414.78;;;13.94;100.00
67434;BME280;54305;47.950;6.572;2023-09-19T07:42:07;94414.94;;;13.93;100.00
67434;BME280;54305;47.950;6.572;2023-09-19T07:44:32;94405.41;;;14.00;100.00
67434;BME280;54305;47.950;6.572;2023-09-19T07:46:57;94422.16;;;14.28;100.00
67434;BME280;54305;47.950;6.572;2023-09-19T07:49:23;94415.09;;;14.43;100.00
67434;BME280;54305;47.950;6.572;2023-09-19T07:51:48;94417.22;;;14.54;100.00
67434;BME280;54305;47.950;6.572;2023-09-19T07:54:13;94416.22;;;14.69;100.00
67434;BME280;54305;47.950;6.572;2023-09-19T07:56:39;94422.78;;;14.80;100.00
67434;BME280;54305;47.950;6.572;2023-09-19T07:59:05;94422.25;;;15.05;100.00
67434;BME280;54305;47.950;6.572;2023-09-19T08:01:30;94421.91;;;14.73;100.00
67434;BME280;54305;47.950;6.572;2023-09-19T08:03:56;94431.81;;;14.92;100.00
67434;BME280;54305;47.950;6.572;2023-09-19T08:06:21;94431.88;;;14.63;100.00
67434;BME280;54305;47.950;6.572;2023-09-19T08:08:47;94428.53;;;15.04;100.00
67434;BME280;54305;47.950;6.572;2023-09-19T08:11:14;94427.88;;;15.38;100.00
67434;BME280;54305;47.950;6.572;2023-09-19T08:13:46;94432.00;;;15.47;100.00
67434;BME280;54305;47.950;6.572;2023-09-19T08:16:13;94431.72;;;15.63;100.00
67434;BME280;54305;47.950;6.572;2023-09-19T08:18:40;94437.56;;;15.86;100.00
67434;BME280;54305;47.950;6.572;2023-09-19T08:21:06;94443.84;;;15.85;100.00
67434;BME280;54305;47.950;6.572;2023-09-19T08:23:36;94438.88;;;15.48;100.00
67434;BME280;54305;47.950;6.572;2023-09-19T08:26:01;94439.94;;;15.18;100.00
67434;BME280;54305;47.950;6.572;2023-09-19T08:28:31;94439.19;;;15.24;100.00
67434;BME280;54305;47.950;6.572;2023-09-19T08:31:00;94448.72;;;15.25;100.00
67434;BME280;54305;47.950;6.572;2023-09-19T08:33:26;94444.69;;;15.08;100.00
67434;BME280;54305;47.950;6.572;2023-09-19T08:35:51;94442.22;;;15.21;100.00
67434;BME280;54305;47.950;6.572;2023-09-19T08:38:16;94440.97;;;15.17;100.00
67434;BME280;54305;47.950;6.572;2023-09-19T08:40:42;94451.88;;;14.85;100.00
67434;BME280;54305;47.950;6.572;2023-09-19T08:43:08;94466.09;;;14.76;100.00
67434;BME280;54305;47.950;6.572;2023-09-19T08:45:34;94466.91;;;14.91;100.00
67434;BME280;54305;47.950;6.572;2023-09-19T08:50:31;94469.88;;;14.73;100.00
67434;BME280;54305;47.950;6.572;2023-09-19T08:53:01;94466.75;;;14.78;100.00
67434;BME280;54305;47.950;6.572;2023-09-19T08:55:32;94463.03;;;14.72;100.00
67434;BME280;54305;47.950;6.572;2023-09-19T08:58:03;94462.03;;;15.23;100.00
67434;BME280;54305;47.950;6.572;2023-09-19T09:00:29;94465.22;;;15.82;100.00
67434;BME280;54305;47.950;6.572;2023-09-19T09:02:55;94466.22;;;15.81;100.00
67434;BME280;54305;47.950;6.572;2023-09-19T09:05:21;94473.47;;;16.00;100.00
67434;BME280;54305;47.950;6.572;2023-09-19T09:07:48;94457.88;;;15.98;100.00
67434;BME280;54305;47.950;6.572;2023-09-19T09:10:15;94471.00;;;15.50;100.00
67434;BME280;54305;47.950;6.572;2023-09-19T09:12:41;94466.75;;;15.70;100.00
67434;BME280;54305;47.950;6.572;2023-09-19T09:15:08;94466.31;;;16.42;100.00
67434;BME280;54305;47.950;6.572;2023-09-19T09:17:36;94475.56;;;16.38;100.00
67434;BME280;54305;47.950;6.572;2023-09-19T09:20:02;94471.22;;;15.97;100.00
67434;BME280;54305;47.950;6.572;2023-09-19T09:22:29;94478.59;;;15.87;100.00
67434;BME280;54305;47.950;6.572;2023-09-19T09:24:57;94477.75;;;15.59;100.00
67434;BME280;54305;47.950;6.572;2023-09-19T09:27:30;94469.56;;;15.47;100.00
67434;BME280;54305;47.950;6.572;2023-09-19T09:29:56;94465.69;;;15.29;100.00
67434;BME280;54305;47.950;6.572;2023-09-19T09:32:25;94467.28;;;15.23;100.00
67434;BME280;54305;47.950;6.572;2023-09-19T09:34:54;94477.19;;;15.28;100.00
67434;BME280;54305;47.950;6.572;2023-09-19T09:37:20;94487.34;;;15.16;100.00
67434;BME280;54305;47.950;6.572;2023-09-19T09:39:49;94485.41;;;15.04;100.00
67434;BME280;54305;47.950;6.572;2023-09-19T09:42:29;94482.09;;;15.16;100.00
67434;BME280;54305;47.950;6.572;2023-09-19T09:45:16;94471.84;;;15.99;100.00
67434;BME280;54305;47.950;6.572;2023-09-19T09:47:46;94471.88;;;16.33;100.00
67434;BME280;54305;47.950;6.572;2023-09-19T09:50:24;94477.50;;;16.30;100.00
67434;BME280;54305;47.950;6.572;2023-09-19T09:52:54;94473.81;;;16.18;100.00
67434;BME280;54305;47.950;6.572;2023-09-19T09:55:26;94466.75;;;15.70;100.00
67434;BME280;54305;47.950;6.572;2023-09-19T09:58:02;94466.16;;;16.23;100.00
67434;BME280;54305;47.950;6.572;2023-09-19T10:00:39;94450.00;;;17.00;100.00
67434;BME280;54305;47.950;6.572;2023-09-19T10:03:20;94464.13;;;17.40;100.00
67434;BME280;54305;47.950;6.572;2023-09-19T10:05:53;94464.69;;;17.29;100.00
67434;BME280;54305;47.950;6.572;2023-09-19T10:08:20;94461.84;;;17.24;100.00
67434;BME280;54305;47.950;6.572;2023-09-19T10:10:46;94459.13;;;17.58;100.00
67434;BME280;54305;47.950;6.572;2023-09-19T10:13:17;94455.38;;;17.33;100.00
67434;BME280;54305;47.950;6.572;2023-09-19T10:15:49;94461.56;;;17.06;100.00
67434;BME280;54305;47.950;6.572;2023-09-19T10:18:20;94454.38;;;17.34;100.00
67434;BME280;54305;47.950;6.572;2023-09-19T10:20:46;94451.00;;;18.11;100.00
67434;BME280;54305;47.950;6.572;2023-09-19T10:23:11;94449.78;;;17.75;100.00
67434;BME280;54305;47.950;6.572;2023-09-19T10:25:43;94453.88;;;17.71;100.00
67434;BME280;54305;47.950;6.572;2023-09-19T10:28:11;94455.38;;;17.26;100.00
67434;BME280;54305;47.950;6.572;2023-09-19T10:30:38;94453.97;;;16.77;100.00
67434;BME280;54305;47.950;6.572;2023-09-19T10:33:09;94460.25;;;16.42;100.00
67434;BME280;54305;47.950;6.572;2023-09-19T10:35:35;94460.00;;;17.24;100.00
67434;BME280;54305;47.950;6.572;2023-09-19T10:38:03;94454.06;;;17.69;100.00
67434;BME280;54305;47.950;6.572;2023-09-19T10:40:29;94453.31;;;18.91;100.00
67434;BME280;54305;47.950;6.572;2023-09-19T10:43:01;94451.25;;;19.81;100.00
67434;BME280;54305;47.950;6.572;2023-09-19T10:45:29;94452.53;;;18.90;100.00
67434;BME280;54305;47.950;6.572;2023-09-19T10:47:56;94453.69;;;20.07;100.00
67434;BME280;54305;47.950;6.572;2023-09-19T10:50:22;94458.00;;;18.89;100.00
67434;BME280;54305;47.950;6.572;2023-09-19T10:52:47;94451.16;;;19.94;100.00
67434;BME280;54305;47.950;6.572;2023-09-19T10:55:18;94454.34;;;20.09;100.00
67434;BME280;54305;47.950;6.572;2023-09-19T10:57:45;94453.78;;;19.69;100.00
67434;BME280;54305;47.950;6.572;2023-09-19T11:00:12;94455.78;;;20.30;100.00
67434;BME280;54305;47.950;6.572;2023-09-19T11:06:02;94457.66;;;21.55;100.00
67434;BME280;54305;47.950;6.572;2023-09-19T11:16:39;94447.97;;;22.77;100.00
67434;BME280;54305;47.950;6.572;2023-09-19T11:19:04;94451.59;;;22.07;98.44
67434;BME280;54305;47.950;6.572;2023-09-19T11:26:47;94437.28;;;20.90;92.88
67434;BME280;54305;47.950;6.572;2023-09-19T11:29:27;94438.09;;;20.48;100.00
67434;BME280;54305;47.950;6.572;2023-09-19T11:31:54;94450.59;;;20.59;100.00
67434;BME280;54305;47.950;6.572;2023-09-19T11:39:38;94429.53;;;21.54;89.36
67434;BME280;54305;47.950;6.572;2023-09-19T11:44:48;94452.97;;;20.67;82.01
67434;BME280;54305;47.950;6.572;2023-09-19T11:47:17;94422.88;;;22.16;76.89
67434;BME280;54305;47.950;6.572;2023-09-19T11:49:44;94418.41;;;22.85;72.27
67434;BME280;54305;47.950;6.572;2023-09-19T11:52:09;94419.72;;;23.78;76.63
67434;BME280;54305;47.950;6.572;2023-09-19T11:54:38;94417.25;;;24.87;75.82
67434;BME280;54305;47.950;6.572;2023-09-19T11:57:06;94414.13;;;22.04;83.20
67434;BME280;54305;47.950;6.572;2023-09-19T11:59:33;94413.13;;;23.81;87.53
67434;BME280;54305;47.950;6.572;2023-09-19T12:02:04;94410.28;;;24.15;72.01
67434;BME280;54305;47.950;6.572;2023-09-19T12:09:35;94401.78;;;22.32;88.83
67434;BME280;54305;47.950;6.572;2023-09-19T12:12:01;94411.06;;;20.82;89.28
67434;BME280;54305;47.950;6.572;2023-09-19T12:14:26;94405.81;;;21.00;92.49
67434;BME280;54305;47.950;6.572;2023-09-19T12:16:53;94391.84;;;21.93;91.28
67434;BME280;54305;47.950;6.572;2023-09-19T12:19:20;94398.25;;;20.79;100.00
67434;BME280;54305;47.950;6.572;2023-09-19T12:21:57;94392.13;;;20.00;100.00
67434;BME280;54305;47.950;6.572;2023-09-19T12:24:23;94399.22;;;20.31;100.00
67434;BME280;54305;47.950;6.572;2023-09-19T12:26:51;94399.69;;;20.64;100.00
67434;BME280;54305;47.950;6.572;2023-09-19T12:29:20;94398.63;;;20.47;100.00
67434;BME280;54305;47.950;6.572;2023-09-19T12:31:49;94396.69;;;19.93;100.00
67434;BME280;54305;47.950;6.572;2023-09-19T12:34:26;94406.13;;;20.32;100.00
67434;BME280;54305;47.950;6.572;2023-09-19T12:39:39;94390.56;;;20.78;100.00
67434;BME280;54305;47.950;6.572;2023-09-19T12:42:06;94393.53;;;19.78;100.00
67434;BME280;54305;47.950;6.572;2023-09-19T12:44:34;94383.56;;;20.47;100.00
67434;BME280;54305;47.950;6.572;2023-09-19T12:47:00;94390.03;;;20.69;100.00
67434;BME280;54305;47.950;6.572;2023-09-19T12:49:26;94374.28;;;21.10;100.00
67434;BME280;54305;47.950;6.572;2023-09-19T12:51:54;94382.63;;;21.96;100.00
67434;BME280;54305;47.950;6.572;2023-09-19T12:54:20;94380.66;;;20.91;100.00
67434;BME280;54305;47.950;6.572;2023-09-19T12:56:47;94372.97;;;21.19;95.87
67434;BME280;54305;47.950;6.572;2023-09-19T12:59:14;94372.19;;;20.83;100.00
67434;BME280;54305;47.950;6.572;2023-09-19T13:01:42;94370.31;;;20.65;89.98
67434;BME280;54305;47.950;6.572;2023-09-19T13:04:18;94367.91;;;21.00;97.42
67434;BME280;54305;47.950;6.572;2023-09-19T13:06:47;94374.00;;;21.30;88.91
67434;BME280;54305;47.950;6.572;2023-09-19T13:09:14;94360.00;;;21.11;91.84
67434;BME280;54305;47.950;6.572;2023-09-19T13:11:40;94373.00;;;21.42;92.02
67434;BME280;54305;47.950;6.572;2023-09-19T13:20:04;94367.28;;;21.45;87.46
67434;BME280;54305;47.950;6.572;2023-09-19T13:25:14;94367.97;;;21.11;100.00
67434;BME280;54305;47.950;6.572;2023-09-19T13:27:43;94364.91;;;20.96;100.00
67434;BME280;54305;47.950;6.572;2023-09-19T13:30:09;94360.84;;;20.76;100.00
67434;BME280;54305;47.950;6.572;2023-09-19T13:32:35;94354.53;;;21.24;100.00
67434;BME280;54305;47.950;6.572;2023-09-19T13:35:00;94361.53;;;21.48;87.75
67434;BME280;54305;47.950;6.572;2023-09-19T13:37:25;94360.47;;;20.72;85.65
67434;BME280;54305;47.950;6.572;2023-09-19T13:39:51;94366.44;;;20.50;89.31
67434;BME280;54305;47.950;6.572;2023-09-19T13:42:16;94370.63;;;20.39;84.19
67434;BME280;54305;47.950;6.572;2023-09-19T13:44:43;94353.63;;;21.01;99.25
67434;BME280;54305;47.950;6.572;2023-09-19T13:47:08;94352.22;;;20.98;100.00
67434;BME280;54305;47.950;6.572;2023-09-19T13:49:35;94358.22;;;20.94;87.54
67434;BME280;54305;47.950;6.572;2023-09-19T13:52:01;94346.56;;;20.77;100.00